Terminal Aerodrome Forecast
Issued by NWS Cleveland, OH

Home | Current Version | Previous Version | Graphics & Text | Print | Product List | Glossary On
Versions: 1 2 3 4 5 6 7 8 9 10 11 12 13 14 15 16
038
FTUS41 KCLE 270202 AAA
TAFCAK
TAF AMD
KCAK 270202Z 2702/2724 20007KT P6SM BKN035
      TEMPO 2702/2706 4SM -SHRA BKN035
     FM270600 21005KT 4SM BR OVC008
     FM271400 23006KT P6SM OVC020
     FM272000 24006KT P6SM BKN050=

USA.gov is the U.S. government's official web portal to all federal, state and local government web resources and services.